Stirum, ND

3:33 AM CDT on September 30, 2016 (GMT -0500)
Gwinner-melroe

Weather History for KGWR - March, 2014

Change the Weather History Date:

Friday, March 21, 2014

  Actual Average (KP67) Record (KP67)
Temperature  
Mean Temperature 30 °F -  
Max Temperature 42 °F 33 °F 39 °F (1997)
Min Temperature 17 °F 21 °F 27 °F (1998)
Degree Days  
Heating Degree Days 36    
Moisture  
Dew Point 25 °F    
Average Humidity 84    
Maximum Humidity 100    
Minimum Humidity 59    
Precipitation  
Precipitation 0.01 in - - ()
Sea Level Pressure  
Sea Level Pressure 30.01 in    
Wind  
Wind Speed 16 mph (NNW)    
Max Wind Speed 30 mph    
Max Gust Speed 39 mph    
Visibility 9 miles    
Events      
Averages and records for this station are not official NWS values.
T = Trace of Precipitation, MM = Missing Value Source: NWS Daily Summary

Daily Weather History Graph

Daily Weather History Graph

Search for Another Location

Airport or City:

Trip Planner

Search our weather history database for the weather conditions in past years. The results will help you decide how hot, cold, wet, or windy it might be!

Date:

Astronomy

Mar. 21, 2014 Rise Set
Actual Time 7:31 AM CDT 7:44 PM CDT
Civil Twilight 7:01 AM CDT 8:14 PM CDT
Nautical Twilight 6:26 AM CDT 8:49 PM CDT
Astronomical Twilight 5:50 AM CDT 9:26 PM CDT
Moon 12:19 AM CDT (3/21) 10:09 AM CDT (3/21)
Length of Visible Light 13h 12m
Length of Day
12h 13m
Waning Gibbous, 75% of the Moon is Illuminated
Mar 21
Waning Gibbous
Mar 23
Last Quarter
Mar 30
New
Apr 7
First Quarter
Apr 15
Full

Hourly Weather History & Observations

Time (CDT) Temp. Windchill Dew Point Humidity Pressure Visibility Wind Dir Wind Speed Gust Speed Precip Events Conditions
12:15 AM 39.2 °F 32.5 °F 37.4 °F 93% 29.73 in 10.0 mi SW 10.4 mph - 0.00 in   Clear
12:35 AM 42.8 °F 35.4 °F 39.2 °F 87% 29.74 in 10.0 mi SW 15.0 mph - 0.00 in   Scattered Clouds
1:15 AM 42.8 °F 36.6 °F 41.0 °F 93% 29.74 in 10.0 mi SW 11.5 mph - 0.00 in   Mostly Cloudy
1:35 AM 41.0 °F 35.8 °F 41.0 °F 100% 29.74 in 10.0 mi SW 8.1 mph - 0.00 in   Overcast
1:55 AM 41.0 °F 35.8 °F 41.0 °F 100% 29.74 in 7.0 mi SW 8.1 mph - 0.00 in   Overcast
2:15 AM 39.2 °F 34.2 °F 39.2 °F 100% 29.73 in 8.0 mi SSW 6.9 mph - 0.00 in   Overcast
2:35 AM 39.2 °F 34.2 °F 39.2 °F 100% 29.72 in 10.0 mi SW 6.9 mph - 0.00 in   Overcast
2:55 AM 39.2 °F 33.6 °F 39.2 °F 100% 29.72 in 10.0 mi WSW 8.1 mph - 0.00 in   Overcast
3:15 AM 39.2 °F 35.0 °F 39.2 °F 100% 29.71 in 10.0 mi WSW 5.8 mph - 0.00 in   Overcast
3:35 AM 39.2 °F 35.9 °F 39.2 °F 100% 29.71 in 10.0 mi WSW 4.6 mph - 0.00 in   Overcast
3:55 AM 37.4 °F 32.8 °F 37.4 °F 100% 29.70 in 10.0 mi SSW 5.8 mph - 0.00 in   Scattered Clouds
4:15 AM 37.4 °F 31.4 °F 37.4 °F 100% 29.71 in 10.0 mi WSW 8.1 mph - 0.00 in   Scattered Clouds
4:35 AM 37.4 °F 30.8 °F 37.4 °F 100% 29.70 in 10.0 mi WSW 9.2 mph - 0.00 in   Scattered Clouds
4:55 AM 37.4 °F 29.8 °F 37.4 °F 100% 29.71 in 10.0 mi West 11.5 mph - 0.00 in   Partly Cloudy
5:15 AM 37.4 °F 29.8 °F 37.4 °F 100% 29.72 in 10.0 mi West 11.5 mph - 0.00 in   Clear
5:35 AM 37.4 °F 29.3 °F 37.4 °F 100% 29.72 in 10.0 mi WNW 12.7 mph - 0.00 in   Partly Cloudy
5:55 AM 35.6 °F 26.6 °F 35.6 °F 100% 29.73 in 10.0 mi WNW 13.8 mph - 0.00 in   Partly Cloudy
6:15 AM 35.6 °F 26.2 °F 35.6 °F 100% 29.73 in 10.0 mi NW 15.0 mph - 0.01 in   Mostly Cloudy
6:35 AM 35.6 °F 25.5 °F 35.6 °F 100% 29.74 in 10.0 mi NNW 17.3 mph 24.2 mph 0.01 in   Overcast
6:55 AM 35.6 °F 25.9 °F 35.6 °F 100% 29.75 in 10.0 mi NNW 16.1 mph - 0.01 in   Overcast
7:15 AM 33.8 °F 23.5 °F 33.8 °F 100% 29.76 in 10.0 mi NNW 16.1 mph - 0.00 in   Overcast
7:35 AM 33.8 °F 22.8 °F 33.8 °F 100% 29.78 in 10.0 mi North 18.4 mph 31.1 mph 0.00 in   Overcast
7:55 AM 33.8 °F 23.2 °F 33.8 °F 100% 29.80 in 2.0 mi NNW 17.3 mph 27.6 mph 0.00 in   Overcast
8:15 AM 33.8 °F 22.2 °F 33.8 °F 100% 29.82 in 1.8 mi North 20.7 mph 24.2 mph 0.00 in   Overcast
8:35 AM 33.8 °F 22.2 °F 33.8 °F 100% 29.83 in 0.8 mi North 20.7 mph 29.9 mph 0.00 in   Overcast
8:55 AM 32.0 °F 18.1 °F 32.0 °F 100% 29.85 in 1.0 mi North 27.6 mph 32.2 mph 0.00 in   Overcast
9:15 AM 32.0 °F 18.9 °F 32.0 °F 100% 29.86 in 1.0 mi North 24.2 mph 35.7 mph 0.00 in   Overcast
9:35 AM 32.0 °F 18.6 °F 32.0 °F 100% 29.88 in 10.0 mi North 25.3 mph 34.5 mph 0.00 in   Overcast
9:55 AM 32.0 °F 20.1 °F 30.2 °F 93% 29.90 in 7.0 mi North 19.6 mph 38.0 mph 0.00 in   Mostly Cloudy
10:15 AM 32.0 °F 19.8 °F 30.2 °F 93% 29.92 in 10.0 mi North 20.7 mph 33.4 mph 0.00 in   Overcast
10:35 AM 32.0 °F 18.1 °F 28.4 °F 87% 29.93 in 9.0 mi North 27.6 mph 39.1 mph 0.00 in   Overcast
10:55 AM 32.0 °F 18.4 °F 28.4 °F 87% 29.95 in 10.0 mi North 26.5 mph 36.8 mph 0.00 in   Overcast
11:15 AM 32.0 °F 18.1 °F 28.4 °F 87% 29.97 in 10.0 mi North 27.6 mph 34.5 mph 0.00 in   Overcast
11:35 AM 30.2 °F 16.5 °F 28.4 °F 93% 29.98 in 10.0 mi NNW 24.2 mph 31.1 mph 0.00 in   Overcast
11:55 AM 30.2 °F 15.9 °F 26.6 °F 86% 30.00 in 10.0 mi NNW 26.5 mph 34.5 mph 0.00 in   Mostly Cloudy
12:15 PM 30.2 °F 16.2 °F 26.6 °F 86% 30.02 in 10.0 mi NNW 25.3 mph 32.2 mph 0.00 in   Mostly Cloudy
12:35 PM 30.2 °F 16.2 °F 26.6 °F 86% 30.04 in 10.0 mi NNW 25.3 mph 33.4 mph 0.00 in   Overcast
12:55 PM 28.4 °F 13.5 °F 24.8 °F 86% 30.05 in 10.0 mi North 26.5 mph 35.7 mph 0.00 in   Overcast
1:15 PM 28.4 °F 13.8 °F 23.0 °F 80% 30.07 in 10.0 mi North 25.3 mph 38.0 mph 0.00 in   Overcast
1:35 PM 28.4 °F 12.7 °F 23.0 °F 80% 30.08 in 10.0 mi NNW 29.9 mph 35.7 mph 0.00 in   Overcast
1:55 PM 28.4 °F 13.8 °F 23.0 °F 80% 30.09 in 10.0 mi North 25.3 mph 33.4 mph 0.00 in   Overcast
2:15 PM 28.4 °F 13.8 °F 23.0 °F 80% 30.11 in 10.0 mi NNW 25.3 mph 35.7 mph 0.00 in   Overcast
2:35 PM 28.4 °F 13.8 °F 23.0 °F 80% 30.11 in 10.0 mi North 25.3 mph 32.2 mph 0.00 in   Overcast
2:55 PM 28.4 °F 14.1 °F 21.2 °F 74% 30.13 in 10.0 mi NNW 24.2 mph 33.4 mph 0.00 in   Overcast
3:15 PM 28.4 °F 14.1 °F 21.2 °F 74% 30.13 in 10.0 mi North 24.2 mph 32.2 mph 0.00 in   Mostly Cloudy
3:35 PM 28.4 °F 14.1 °F 21.2 °F 74% 30.15 in 10.0 mi NNW 24.2 mph 31.1 mph 0.00 in   Mostly Cloudy
3:55 PM 28.4 °F 14.4 °F 19.4 °F 69% 30.15 in 10.0 mi NNW 23.0 mph 32.2 mph 0.00 in   Mostly Cloudy
4:15 PM 28.4 °F 14.4 °F 19.4 °F 69% 30.17 in 10.0 mi NNW 23.0 mph 27.6 mph 0.00 in   Mostly Cloudy
4:35 PM 28.4 °F 14.4 °F 19.4 °F 69% 30.17 in 10.0 mi NNW 23.0 mph 28.8 mph 0.00 in   Scattered Clouds
4:55 PM 28.4 °F 15.4 °F 17.6 °F 64% 30.19 in 10.0 mi NNW 19.6 mph 28.8 mph 0.00 in   Scattered Clouds
5:15 PM 28.4 °F 13.8 °F 17.6 °F 64% 30.20 in 10.0 mi North 25.3 mph 28.8 mph 0.00 in   Mostly Cloudy
5:35 PM 26.6 °F 11.4 °F 15.8 °F 64% 30.21 in 10.0 mi North 25.3 mph 31.1 mph 0.00 in   Scattered Clouds
5:55 PM 26.6 °F 12.4 °F 14.0 °F 59% 30.22 in 10.0 mi NNW 21.9 mph 29.9 mph 0.00 in   Partly Cloudy
6:15 PM 24.8 °F 9.3 °F 14.0 °F 64% 30.23 in 10.0 mi North 24.2 mph 34.5 mph 0.00 in   Partly Cloudy
6:35 PM 24.8 °F 9.6 °F 14.0 °F 64% 30.25 in 10.0 mi NNW 23.0 mph 29.9 mph 0.00 in   Scattered Clouds
6:55 PM 23.0 °F 6.9 °F 12.2 °F 63% 30.26 in 10.0 mi North 24.2 mph 28.8 mph 0.00 in   Mostly Cloudy
7:15 PM 21.2 °F 4.5 °F 12.2 °F 68% 30.27 in 10.0 mi NNW 24.2 mph 27.6 mph 0.00 in   Scattered Clouds
7:35 PM 21.2 °F 6.0 °F 10.4 °F 63% 30.27 in 10.0 mi NNW 19.6 mph 27.6 mph 0.00 in   Scattered Clouds
7:55 PM 21.2 °F 6.0 °F 10.4 °F 63% 30.29 in 10.0 mi North 19.6 mph 26.5 mph 0.00 in   Partly Cloudy
8:15 PM 21.2 °F 5.6 °F 10.4 °F 63% 30.30 in 10.0 mi NNW 20.7 mph 25.3 mph 0.00 in   Clear
8:35 PM 19.4 °F 4.5 °F 10.4 °F 68% 30.30 in 10.0 mi NNW 17.3 mph 25.3 mph 0.00 in   Partly Cloudy
8:55 PM 19.4 °F 3.2 °F 10.4 °F 68% 30.31 in 10.0 mi North 20.7 mph 24.2 mph 0.00 in   Scattered Clouds
9:15 PM 19.4 °F 4.1 °F 10.4 °F 68% 30.32 in 10.0 mi NNW 18.4 mph - 0.00 in   Scattered Clouds
9:35 PM 19.4 °F 6.0 °F 12.2 °F 74% 30.34 in 10.0 mi North 13.8 mph - 0.00 in   Mostly Cloudy
9:55 PM 19.4 °F 4.5 °F 10.4 °F 68% 30.35 in 10.0 mi North 17.3 mph - 0.00 in   Overcast
10:15 PM 19.4 °F 6.0 °F 10.4 °F 68% 30.36 in 10.0 mi North 13.8 mph - 0.00 in   Mostly Cloudy
10:35 PM 19.4 °F 4.5 °F 10.4 °F 68% 30.36 in 10.0 mi North 17.3 mph - 0.00 in   Mostly Cloudy
10:55 PM 17.6 °F 2.2 °F 10.4 °F 73% 30.37 in 10.0 mi NNW 17.3 mph - 0.00 in   Mostly Cloudy
11:15 PM 17.6 °F 4.3 °F 10.4 °F 73% 30.38 in 10.0 mi NNW 12.7 mph 17.3 mph 0.00 in   Mostly Cloudy
11:35 PM 17.6 °F 1.7 °F 8.6 °F 68% 30.38 in 10.0 mi North 18.4 mph 23.0 mph 0.00 in   Overcast
11:55 PM 17.6 °F 2.7 °F 8.6 °F 68% 30.39 in 10.0 mi North 16.1 mph 23.0 mph 0.00 in   Mostly Cloudy